sensor_id;sensor_type;location;lat;lon;timestamp;pressure;altitude;pressure_sealevel;temperature;humidity
64253;BME280;50592;52.958;-7.470;2024-01-30T00:13:13;101429.91;;;2.50;100.00
64253;BME280;50592;52.958;-7.470;2024-01-30T00:16:21;101430.03;;;2.46;100.00
64253;BME280;50592;52.958;-7.470;2024-01-30T00:18:59;101431.13;;;2.41;100.00
64253;BME280;50592;52.958;-7.470;2024-01-30T00:21:31;101425.84;;;2.42;100.00
64253;BME280;50592;52.958;-7.470;2024-01-30T00:28:33;101432.50;;;2.50;100.00
64253;BME280;50592;52.958;-7.470;2024-01-30T00:31:28;101432.72;;;2.45;100.00
64253;BME280;50592;52.958;-7.470;2024-01-30T00:34:03;101424.69;;;2.29;100.00
64253;BME280;50592;52.958;-7.470;2024-01-30T00:36:57;101434.88;;;2.35;100.00
64253;BME280;50592;52.958;-7.470;2024-01-30T00:39:23;101433.38;;;2.29;100.00
64253;BME280;50592;52.958;-7.470;2024-01-30T00:42:14;101432.41;;;2.32;100.00
64253;BME280;50592;52.958;-7.470;2024-01-30T00:44:39;101429.84;;;2.30;100.00
64253;BME280;50592;52.958;-7.470;2024-01-30T00:47:39;101435.78;;;2.34;100.00
64253;BME280;50592;52.958;-7.470;2024-01-30T00:50:30;101445.44;;;2.32;100.00
64253;BME280;50592;52.958;-7.470;2024-01-30T00:52:56;101434.28;;;2.28;100.00
64253;BME280;50592;52.958;-7.470;2024-01-30T00:56:10;101436.75;;;2.31;100.00
64253;BME280;50592;52.958;-7.470;2024-01-30T00:58:36;101441.28;;;2.28;100.00
64253;BME280;50592;52.958;-7.470;2024-01-30T01:01:04;101445.56;;;2.29;100.00
64253;BME280;50592;52.958;-7.470;2024-01-30T01:03:59;101441.06;;;2.32;100.00
64253;BME280;50592;52.958;-7.470;2024-01-30T01:06:25;101444.66;;;2.30;100.00
64253;BME280;50592;52.958;-7.470;2024-01-30T01:09:01;101446.38;;;2.31;100.00
64253;BME280;50592;52.958;-7.470;2024-01-30T01:12:15;101435.47;;;2.21;100.00
64253;BME280;50592;52.958;-7.470;2024-01-30T01:14:42;101454.41;;;2.25;100.00
64253;BME280;50592;52.958;-7.470;2024-01-30T01:17:20;101449.16;;;2.26;100.00
64253;BME280;50592;52.958;-7.470;2024-01-30T01:20:22;101456.06;;;2.27;100.00
64253;BME280;50592;52.958;-7.470;2024-01-30T01:22:54;101459.69;;;2.23;100.00
64253;BME280;50592;52.958;-7.470;2024-01-30T01:32:51;101466.03;;;2.17;100.00
64253;BME280;50592;52.958;-7.470;2024-01-30T01:52:54;101489.50;;;2.17;100.00
64253;BME280;50592;52.958;-7.470;2024-01-30T02:00:15;101500.94;;;2.15;100.00
64253;BME280;50592;52.958;-7.470;2024-01-30T02:03:55;101489.91;;;2.08;100.00
64253;BME280;50592;52.958;-7.470;2024-01-30T02:14:47;101505.91;;;1.98;100.00
64253;BME280;50592;52.958;-7.470;2024-01-30T02:18:36;101511.06;;;2.00;100.00
64253;BME280;50592;52.958;-7.470;2024-01-30T02:34:48;101517.22;;;1.99;100.00
64253;BME280;50592;52.958;-7.470;2024-01-30T02:54:10;101525.75;;;1.80;100.00
64253;BME280;50592;52.958;-7.470;2024-01-30T03:08:49;101527.16;;;1.67;100.00
64253;BME280;50592;52.958;-7.470;2024-01-30T03:11:15;101522.09;;;1.62;100.00
64253;BME280;50592;52.958;-7.470;2024-01-30T03:13:52;101520.28;;;1.64;100.00
64253;BME280;50592;52.958;-7.470;2024-01-30T03:16:18;101521.59;;;1.52;100.00
64253;BME280;50592;52.958;-7.470;2024-01-30T03:19:05;101525.38;;;1.45;100.00
64253;BME280;50592;52.958;-7.470;2024-01-30T03:21:36;101526.31;;;1.42;100.00
64253;BME280;50592;52.958;-7.470;2024-01-30T03:24:13;101531.69;;;1.38;100.00
64253;BME280;50592;52.958;-7.470;2024-01-30T03:26:39;101549.94;;;1.38;100.00
64253;BME280;50592;52.958;-7.470;2024-01-30T03:29:08;101536.66;;;1.44;100.00
64253;BME280;50592;52.958;-7.470;2024-01-30T03:31:35;101537.59;;;1.43;100.00
64253;BME280;50592;52.958;-7.470;2024-01-30T03:34:02;101532.38;;;1.43;100.00
64253;BME280;50592;52.958;-7.470;2024-01-30T03:36:28;101546.81;;;1.52;100.00
64253;BME280;50592;52.958;-7.470;2024-01-30T03:38:55;101549.34;;;1.53;100.00
64253;BME280;50592;52.958;-7.470;2024-01-30T03:41:30;101548.28;;;1.59;100.00
64253;BME280;50592;52.958;-7.470;2024-01-30T03:43:59;101554.44;;;1.56;100.00
64253;BME280;50592;52.958;-7.470;2024-01-30T03:46:37;101559.88;;;1.50;100.00
64253;BME280;50592;52.958;-7.470;2024-01-30T03:49:03;101562.44;;;1.52;100.00
64253;BME280;50592;52.958;-7.470;2024-01-30T03:51:30;101560.00;;;1.47;100.00
64253;BME280;50592;52.958;-7.470;2024-01-30T03:53:56;101575.75;;;1.44;100.00
64253;BME280;50592;52.958;-7.470;2024-01-30T03:56:22;101568.22;;;1.36;100.00
64253;BME280;50592;52.958;-7.470;2024-01-30T03:58:48;101571.75;;;1.35;100.00
64253;BME280;50592;52.958;-7.470;2024-01-30T04:01:18;101570.88;;;1.34;100.00
64253;BME280;50592;52.958;-7.470;2024-01-30T04:03:48;101579.03;;;1.25;100.00
64253;BME280;50592;52.958;-7.470;2024-01-30T04:06:19;101572.13;;;1.24;100.00
64253;BME280;50592;52.958;-7.470;2024-01-30T04:08:45;101591.25;;;1.23;100.00
64253;BME280;50592;52.958;-7.470;2024-01-30T04:11:14;101580.06;;;1.21;100.00
64253;BME280;50592;52.958;-7.470;2024-01-30T04:13:39;101578.72;;;1.09;100.00
64253;BME280;50592;52.958;-7.470;2024-01-30T04:16:06;101583.94;;;1.09;100.00
64253;BME280;50592;52.958;-7.470;2024-01-30T04:18:35;101580.59;;;1.05;100.00
64253;BME280;50592;52.958;-7.470;2024-01-30T04:21:01;101593.44;;;1.10;100.00
64253;BME280;50592;52.958;-7.470;2024-01-30T04:23:30;101593.38;;;1.11;100.00
64253;BME280;50592;52.958;-7.470;2024-01-30T04:26:13;101584.38;;;1.22;100.00
64253;BME280;50592;52.958;-7.470;2024-01-30T04:28:45;101589.63;;;1.20;100.00
64253;BME280;50592;52.958;-7.470;2024-01-30T04:31:28;101605.25;;;1.20;100.00
64253;BME280;50592;52.958;-7.470;2024-01-30T04:33:54;101596.00;;;1.11;100.00
64253;BME280;50592;52.958;-7.470;2024-01-30T04:36:19;101602.00;;;1.14;100.00
64253;BME280;50592;52.958;-7.470;2024-01-30T04:38:45;101599.47;;;1.12;100.00
64253;BME280;50592;52.958;-7.470;2024-01-30T04:41:12;101600.31;;;1.13;100.00
64253;BME280;50592;52.958;-7.470;2024-01-30T04:43:40;101610.72;;;1.13;100.00
64253;BME280;50592;52.958;-7.470;2024-01-30T04:46:06;101617.53;;;1.17;100.00
64253;BME280;50592;52.958;-7.470;2024-01-30T04:48:32;101612.44;;;1.14;100.00
64253;BME280;50592;52.958;-7.470;2024-01-30T04:50:58;101614.38;;;1.07;100.00
64253;BME280;50592;52.958;-7.470;2024-01-30T04:53:27;101613.34;;;1.13;100.00
64253;BME280;50592;52.958;-7.470;2024-01-30T04:55:53;101611.72;;;1.08;100.00
64253;BME280;50592;52.958;-7.470;2024-01-30T04:58:19;101620.28;;;1.12;100.00
64253;BME280;50592;52.958;-7.470;2024-01-30T05:00:45;101624.44;;;1.18;100.00
64253;BME280;50592;52.958;-7.470;2024-01-30T05:03:14;101622.78;;;1.15;100.00
64253;BME280;50592;52.958;-7.470;2024-01-30T05:05:40;101620.13;;;1.17;100.00
64253;BME280;50592;52.958;-7.470;2024-01-30T05:08:06;101615.72;;;1.19;100.00
64253;BME280;50592;52.958;-7.470;2024-01-30T05:10:35;101628.59;;;1.23;100.00
64253;BME280;50592;52.958;-7.470;2024-01-30T05:13:01;101632.06;;;1.24;100.00
64253;BME280;50592;52.958;-7.470;2024-01-30T05:15:27;101631.13;;;1.25;100.00
64253;BME280;50592;52.958;-7.470;2024-01-30T05:17:54;101624.34;;;1.21;100.00
64253;BME280;50592;52.958;-7.470;2024-01-30T05:20:20;101636.41;;;1.23;100.00
64253;BME280;50592;52.958;-7.470;2024-01-30T05:22:46;101643.25;;;1.26;100.00
64253;BME280;50592;52.958;-7.470;2024-01-30T05:25:13;101638.78;;;1.30;100.00
64253;BME280;50592;52.958;-7.470;2024-01-30T05:27:39;101648.13;;;1.35;100.00
64253;BME280;50592;52.958;-7.470;2024-01-30T05:30:07;101655.84;;;1.39;100.00
64253;BME280;50592;52.958;-7.470;2024-01-30T05:32:34;101655.88;;;1.37;100.00
64253;BME280;50592;52.958;-7.470;2024-01-30T05:35:00;101662.81;;;1.38;100.00
64253;BME280;50592;52.958;-7.470;2024-01-30T05:37:32;101662.13;;;1.33;100.00
64253;BME280;50592;52.958;-7.470;2024-01-30T05:39:58;101663.19;;;1.27;100.00
64253;BME280;50592;52.958;-7.470;2024-01-30T05:42:27;101664.25;;;1.21;100.00
64253;BME280;50592;52.958;-7.470;2024-01-30T05:44:53;101669.34;;;1.24;100.00
64253;BME280;50592;52.958;-7.470;2024-01-30T05:47:19;101677.97;;;1.27;100.00
64253;BME280;50592;52.958;-7.470;2024-01-30T05:49:45;101673.72;;;1.24;100.00
64253;BME280;50592;52.958;-7.470;2024-01-30T05:52:16;101670.97;;;1.29;100.00
64253;BME280;50592;52.958;-7.470;2024-01-30T05:54:43;101671.00;;;1.27;100.00
64253;BME280;50592;52.958;-7.470;2024-01-30T05:57:09;101677.69;;;1.34;100.00
64253;BME280;50592;52.958;-7.470;2024-01-30T05:59:35;101670.91;;;1.30;100.00
64253;BME280;50592;52.958;-7.470;2024-01-30T06:02:04;101675.19;;;1.31;100.00
64253;BME280;50592;52.958;-7.470;2024-01-30T06:04:31;101687.19;;;1.35;100.00
64253;BME280;50592;52.958;-7.470;2024-01-30T06:07:02;101683.06;;;1.30;100.00
64253;BME280;50592;52.958;-7.470;2024-01-30T06:09:41;101686.97;;;1.18;100.00
64253;BME280;50592;52.958;-7.470;2024-01-30T06:12:07;101685.59;;;1.06;100.00
64253;BME280;50592;52.958;-7.470;2024-01-30T06:14:34;101697.34;;;0.92;100.00
64253;BME280;50592;52.958;-7.470;2024-01-30T06:17:03;101699.44;;;0.81;100.00
64253;BME280;50592;52.958;-7.470;2024-01-30T06:19:29;101699.78;;;0.70;100.00
64253;BME280;50592;52.958;-7.470;2024-01-30T06:21:55;101697.38;;;0.64;100.00
64253;BME280;50592;52.958;-7.470;2024-01-30T06:24:24;101701.00;;;0.58;100.00
64253;BME280;50592;52.958;-7.470;2024-01-30T06:26:50;101698.88;;;0.71;100.00
64253;BME280;50592;52.958;-7.470;2024-01-30T06:29:16;101704.19;;;0.68;100.00
64253;BME280;50592;52.958;-7.470;2024-01-30T06:31:42;101712.13;;;0.63;100.00
64253;BME280;50592;52.958;-7.470;2024-01-30T06:34:11;101711.16;;;0.66;100.00
64253;BME280;50592;52.958;-7.470;2024-01-30T06:36:37;101717.09;;;0.71;100.00
64253;BME280;50592;52.958;-7.470;2024-01-30T06:39:04;101717.09;;;0.71;100.00
64253;BME280;50592;52.958;-7.470;2024-01-30T06:41:29;101721.28;;;0.75;100.00
64253;BME280;50592;52.958;-7.470;2024-01-30T06:43:56;101717.00;;;0.74;100.00
64253;BME280;50592;52.958;-7.470;2024-01-30T06:46:22;101724.19;;;0.66;100.00
64253;BME280;50592;52.958;-7.470;2024-01-30T06:48:47;101733.84;;;0.62;100.00
64253;BME280;50592;52.958;-7.470;2024-01-30T06:51:13;101741.88;;;0.54;100.00
64253;BME280;50592;52.958;-7.470;2024-01-30T06:53:39;101744.53;;;0.53;100.00
64253;BME280;50592;52.958;-7.470;2024-01-30T06:56:05;101752.28;;;0.54;100.00
64253;BME280;50592;52.958;-7.470;2024-01-30T06:58:31;101746.34;;;0.51;100.00
64253;BME280;50592;52.958;-7.470;2024-01-30T07:00:58;101755.25;;;0.42;100.00
64253;BME280;50592;52.958;-7.470;2024-01-30T07:03:24;101758.09;;;0.34;100.00
64253;BME280;50592;52.958;-7.470;2024-01-30T07:05:49;101769.41;;;0.33;100.00
64253;BME280;50592;52.958;-7.470;2024-01-30T07:08:16;101763.31;;;0.32;100.00
64253;BME280;50592;52.958;-7.470;2024-01-30T07:10:44;101773.00;;;0.29;100.00
64253;BME280;50592;52.958;-7.470;2024-01-30T07:13:11;101778.06;;;0.33;100.00
64253;BME280;50592;52.958;-7.470;2024-01-30T07:15:37;101783.97;;;0.39;100.00
64253;BME280;50592;52.958;-7.470;2024-01-30T07:18:03;101775.47;;;0.33;100.00
64253;BME280;50592;52.958;-7.470;2024-01-30T07:20:30;101780.81;;;0.27;100.00
64253;BME280;50592;52.958;-7.470;2024-01-30T07:23:00;101779.94;;;0.28;100.00
64253;BME280;50592;52.958;-7.470;2024-01-30T07:25:26;101781.81;;;0.23;100.00
64253;BME280;50592;52.958;-7.470;2024-01-30T07:27:53;101774.00;;;0.23;100.00
64253;BME280;50592;52.958;-7.470;2024-01-30T07:30:20;101774.94;;;0.20;100.00
64253;BME280;50592;52.958;-7.470;2024-01-30T07:32:46;101780.97;;;0.21;100.00
64253;BME280;50592;52.958;-7.470;2024-01-30T07:35:13;101785.22;;;0.25;100.00
64253;BME280;50592;52.958;-7.470;2024-01-30T07:37:39;101786.06;;;0.26;100.00
64253;BME280;50592;52.958;-7.470;2024-01-30T07:40:05;101787.78;;;0.27;100.00
64253;BME280;50592;52.958;-7.470;2024-01-30T07:42:32;101798.97;;;0.30;100.00
64253;BME280;50592;52.958;-7.470;2024-01-30T07:44:59;101804.13;;;0.32;100.00
64253;BME280;50592;52.958;-7.470;2024-01-30T07:47:25;101809.31;;;0.32;100.00
64253;BME280;50592;52.958;-7.470;2024-01-30T07:49:51;101808.53;;;0.28;100.00
64253;BME280;50592;52.958;-7.470;2024-01-30T07:52:18;101816.44;;;0.25;100.00
64253;BME280;50592;52.958;-7.470;2024-01-30T07:54:44;101823.41;;;0.23;100.00
64253;BME280;50592;52.958;-7.470;2024-01-30T07:57:09;101819.88;;;0.26;100.00
64253;BME280;50592;52.958;-7.470;2024-01-30T07:59:35;101822.50;;;0.24;100.00
64253;BME280;50592;52.958;-7.470;2024-01-30T08:02:01;101812.88;;;0.28;100.00
64253;BME280;50592;52.958;-7.470;2024-01-30T08:04:27;101825.84;;;0.29;100.00
64253;BME280;50592;52.958;-7.470;2024-01-30T08:06:52;101836.16;;;0.32;100.00
64253;BME280;50592;52.958;-7.470;2024-01-30T08:09:18;101836.16;;;0.32;100.00
64253;BME280;50592;52.958;-7.470;2024-01-30T08:11:46;101844.78;;;0.34;100.00
64253;BME280;50592;52.958;-7.470;2024-01-30T08:14:12;101841.28;;;0.35;100.00
64253;BME280;50592;52.958;-7.470;2024-01-30T08:16:39;101844.88;;;0.31;100.00
64253;BME280;50592;52.958;-7.470;2024-01-30T08:19:05;101838.94;;;0.26;100.00
64253;BME280;50592;52.958;-7.470;2024-01-30T08:21:30;101853.72;;;0.24;100.00
64253;BME280;50592;52.958;-7.470;2024-01-30T08:24:05;101856.22;;;0.29;100.00
64253;BME280;50592;52.958;-7.470;2024-01-30T08:26:32;101860.47;;;0.31;100.00
64253;BME280;50592;52.958;-7.470;2024-01-30T08:28:57;101859.66;;;0.29;100.00
64253;BME280;50592;52.958;-7.470;2024-01-30T08:31:23;101869.19;;;0.30;100.00
64253;BME280;50592;52.958;-7.470;2024-01-30T08:33:51;101875.22;;;0.31;100.00
64253;BME280;50592;52.958;-7.470;2024-01-30T08:36:18;101882.25;;;0.27;100.00
64253;BME280;50592;52.958;-7.470;2024-01-30T08:38:44;101876.34;;;0.22;100.00
64253;BME280;50592;52.958;-7.470;2024-01-30T08:41:09;101875.63;;;0.15;100.00
64253;BME280;50592;52.958;-7.470;2024-01-30T08:43:35;101865.34;;;0.10;100.00
64253;BME280;50592;52.958;-7.470;2024-01-30T08:46:02;101879.19;;;0.13;100.00
64253;BME280;50592;52.958;-7.470;2024-01-30T08:48:28;101883.47;;;0.14;100.00
64253;BME280;50592;52.958;-7.470;2024-01-30T08:50:53;101892.84;;;0.19;100.00
64253;BME280;50592;52.958;-7.470;2024-01-30T08:53:19;101884.16;;;0.20;100.00
64253;BME280;50592;52.958;-7.470;2024-01-30T08:55:45;101884.09;;;0.23;100.00
64253;BME280;50592;52.958;-7.470;2024-01-30T08:58:11;101890.16;;;0.22;100.00
64253;BME280;50592;52.958;-7.470;2024-01-30T09:00:36;101896.28;;;0.21;100.00
64253;BME280;50592;52.958;-7.470;2024-01-30T09:03:05;101909.16;;;0.26;100.00
64253;BME280;50592;52.958;-7.470;2024-01-30T09:05:31;101906.56;;;0.26;100.00
64253;BME280;50592;52.958;-7.470;2024-01-30T09:07:57;101904.59;;;0.34;100.00
64253;BME280;50592;52.958;-7.470;2024-01-30T09:10:23;101907.03;;;0.41;100.00
64253;BME280;50592;52.958;-7.470;2024-01-30T09:12:48;101907.78;;;0.46;100.00
64253;BME280;50592;52.958;-7.470;2024-01-30T09:15:14;101907.56;;;0.54;100.00
64253;BME280;50592;52.958;-7.470;2024-01-30T09:17:40;101904.69;;;0.63;100.00
64253;BME280;50592;52.958;-7.470;2024-01-30T09:20:06;101908.63;;;0.77;100.00
64253;BME280;50592;52.958;-7.470;2024-01-30T09:22:32;101909.22;;;0.86;100.00
64253;BME280;50592;52.958;-7.470;2024-01-30T09:24:58;101918.72;;;0.89;100.00
64253;BME280;50592;52.958;-7.470;2024-01-30T09:27:24;101918.72;;;0.89;100.00
64253;BME280;50592;52.958;-7.470;2024-01-30T09:29:50;101913.38;;;0.94;100.00
64253;BME280;50592;52.958;-7.470;2024-01-30T09:32:16;101922.88;;;0.95;100.00
64253;BME280;50592;52.958;-7.470;2024-01-30T09:34:43;101919.38;;;0.96;100.00
64253;BME280;50592;52.958;-7.470;2024-01-30T09:37:09;101921.88;;;0.99;100.00
64253;BME280;50592;52.958;-7.470;2024-01-30T09:39:34;101920.16;;;0.99;100.00
64253;BME280;50592;52.958;-7.470;2024-01-30T09:42:05;101924.53;;;0.97;100.00
64253;BME280;50592;52.958;-7.470;2024-01-30T09:44:31;101934.03;;;1.00;100.00
64253;BME280;50592;52.958;-7.470;2024-01-30T09:47:00;101924.41;;;1.02;100.00
64253;BME280;50592;52.958;-7.470;2024-01-30T09:49:35;101922.47;;;1.09;100.00
64253;BME280;50592;52.958;-7.470;2024-01-30T09:52:05;101936.28;;;1.13;100.00
64253;BME280;50592;52.958;-7.470;2024-01-30T09:54:32;101938.00;;;1.12;100.00
64253;BME280;50592;52.958;-7.470;2024-01-30T09:56:58;101944.72;;;1.21;100.00
64253;BME280;50592;52.958;-7.470;2024-01-30T09:59:24;101945.16;;;1.34;100.00
64253;BME280;50592;52.958;-7.470;2024-01-30T10:01:50;101936.84;;;1.51;100.00
64253;BME280;50592;52.958;-7.470;2024-01-30T10:04:16;101949.34;;;1.68;100.00
64253;BME280;50592;52.958;-7.470;2024-01-30T10:06:41;101940.41;;;1.76;100.00
64253;BME280;50592;52.958;-7.470;2024-01-30T10:09:07;101952.28;;;1.86;100.00
64253;BME280;50592;52.958;-7.470;2024-01-30T10:11:35;101952.03;;;1.94;100.00
64253;BME280;50592;52.958;-7.470;2024-01-30T10:14:01;101949.97;;;2.04;100.00
64253;BME280;50592;52.958;-7.470;2024-01-30T10:16:27;101958.47;;;2.09;100.00
64253;BME280;50592;52.958;-7.470;2024-01-30T10:18:53;101961.94;;;2.09;100.00
64253;BME280;50592;52.958;-7.470;2024-01-30T10:21:19;101955.75;;;2.12;100.00
64253;BME280;50592;52.958;-7.470;2024-01-30T10:23:45;101946.38;;;2.06;100.00
64253;BME280;50592;52.958;-7.470;2024-01-30T10:26:11;101943.03;;;2.03;100.00
64253;BME280;50592;52.958;-7.470;2024-01-30T10:28:37;101947.41;;;2.02;100.00
64253;BME280;50592;52.958;-7.470;2024-01-30T10:31:02;101947.25;;;2.07;100.00
64253;BME280;50592;52.958;-7.470;2024-01-30T10:33:32;101947.09;;;2.12;100.00
64253;BME280;50592;52.958;-7.470;2024-01-30T10:36:01;101961.63;;;2.19;100.00
64253;BME280;50592;52.958;-7.470;2024-01-30T10:38:31;101955.22;;;2.29;100.00
64253;BME280;50592;52.958;-7.470;2024-01-30T10:40:59;101956.63;;;2.38;100.00
64253;BME280;50592;52.958;-7.470;2024-01-30T10:43:35;101959.44;;;2.57;100.00
64253;BME280;50592;52.958;-7.470;2024-01-30T10:46:12;101954.72;;;2.69;100.00
64253;BME280;50592;52.958;-7.470;2024-01-30T10:48:43;101967.44;;;2.78;100.00
64253;BME280;50592;52.958;-7.470;2024-01-30T10:51:13;101980.22;;;2.86;100.00
64253;BME280;50592;52.958;-7.470;2024-01-30T10:53:39;101982.81;;;2.86;100.00
64253;BME280;50592;52.958;-7.470;2024-01-30T10:56:08;101990.44;;;2.92;100.00
64253;BME280;50592;52.958;-7.470;2024-01-30T10:58:35;101988.22;;;3.05;100.00
64253;BME280;50592;52.958;-7.470;2024-01-30T11:01:04;101980.91;;;3.15;100.00
64253;BME280;50592;52.958;-7.470;2024-01-30T11:03:35;101973.00;;;3.17;100.00
64253;BME280;50592;52.958;-7.470;2024-01-30T11:06:02;101993.31;;;3.32;100.00
64253;BME280;50592;52.958;-7.470;2024-01-30T11:08:32;101991.88;;;3.47;100.00
64253;BME280;50592;52.958;-7.470;2024-01-30T11:10:58;101996.63;;;3.60;100.00
64253;BME280;50592;52.958;-7.470;2024-01-30T11:13:31;101983.19;;;3.69;100.00
64253;BME280;50592;52.958;-7.470;2024-01-30T11:16:04;101981.84;;;3.81;100.00
64253;BME280;50592;52.958;-7.470;2024-01-30T11:18:32;101982.41;;;3.90;100.00
64253;BME280;50592;52.958;-7.470;2024-01-30T11:20:59;101981.09;;;4.00;100.00
64253;BME280;50592;52.958;-7.470;2024-01-30T11:23:27;101984.97;;;4.12;100.00
64253;BME280;50592;52.958;-7.470;2024-01-30T11:25:54;101977.59;;;4.22;100.00
64253;BME280;50592;52.958;-7.470;2024-01-30T11:32:22;101976.63;;;4.25;100.00
64253;BME280;50592;52.958;-7.470;2024-01-30T11:34:49;101972.41;;;4.20;100.00
64253;BME280;50592;52.958;-7.470;2024-01-30T11:37:16;101969.63;;;4.25;100.00
64253;BME280;50592;52.958;-7.470;2024-01-30T11:39:46;101962.41;;;4.30;100.00
64253;BME280;50592;52.958;-7.470;2024-01-30T11:42:12;101968.28;;;4.36;100.00
64253;BME280;50592;52.958;-7.470;2024-01-30T11:44:39;101975.09;;;4.40;100.00
64253;BME280;50592;52.958;-7.470;2024-01-30T11:47:04;101973.13;;;4.45;100.00
64253;BME280;50592;52.958;-7.470;2024-01-30T11:49:30;101966.97;;;4.46;100.00
64253;BME280;50592;52.958;-7.470;2024-01-30T11:51:56;101958.88;;;4.52;100.00
64253;BME280;50592;52.958;-7.470;2024-01-30T11:54:22;101950.75;;;4.58;100.00
64253;BME280;50592;52.958;-7.470;2024-01-30T11:56:48;101940.13;;;4.62;100.00
64253;BME280;50592;52.958;-7.470;2024-01-30T11:59:14;101939.00;;;4.67;100.00
64253;BME280;50592;52.958;-7.470;2024-01-30T12:01:40;101932.75;;;4.70;100.00
64253;BME280;50592;52.958;-7.470;2024-01-30T12:04:07;101929.94;;;4.75;100.00
64253;BME280;50592;52.958;-7.470;2024-01-30T12:06:34;101935.09;;;4.76;100.00
64253;BME280;50592;52.958;-7.470;2024-01-30T12:09:02;101939.97;;;4.86;100.00
64253;BME280;50592;52.958;-7.470;2024-01-30T12:11:32;101937.63;;;4.79;100.00
64253;BME280;50592;52.958;-7.470;2024-01-30T12:13:58;101948.84;;;4.81;100.00
64253;BME280;50592;52.958;-7.470;2024-01-30T12:16:24;101947.09;;;4.82;100.00
64253;BME280;50592;52.958;-7.470;2024-01-30T12:18:59;101942.50;;;4.87;100.00
64253;BME280;50592;52.958;-7.470;2024-01-30T12:21:25;101942.38;;;4.90;100.00
64253;BME280;50592;52.958;-7.470;2024-01-30T12:23:51;101934.97;;;4.99;100.00
64253;BME280;50592;52.958;-7.470;2024-01-30T12:26:17;101933.16;;;5.01;100.00
64253;BME280;50592;52.958;-7.470;2024-01-30T12:28:49;101927.25;;;5.15;100.00
64253;BME280;50592;52.958;-7.470;2024-01-30T12:31:15;101920.19;;;5.17;100.00
64253;BME280;50592;52.958;-7.470;2024-01-30T12:33:41;101923.91;;;5.30;100.00
64253;BME280;50592;52.958;-7.470;2024-01-30T12:36:07;101927.88;;;5.39;100.00
64253;BME280;50592;52.958;-7.470;2024-01-30T12:38:33;101923.06;;;5.49;100.00
64253;BME280;50592;52.958;-7.470;2024-01-30T12:40:58;101917.28;;;5.60;100.00
64253;BME280;50592;52.958;-7.470;2024-01-30T12:43:25;101919.38;;;5.71;100.00
64253;BME280;50592;52.958;-7.470;2024-01-30T12:45:52;101925.78;;;5.83;100.00
64253;BME280;50592;52.958;-7.470;2024-01-30T12:48:18;101921.69;;;5.95;100.00
64253;BME280;50592;52.958;-7.470;2024-01-30T12:50:44;101925.34;;;6.10;100.00
64253;BME280;50592;52.958;-7.470;2024-01-30T12:53:10;101917.69;;;6.23;100.00
64253;BME280;50592;52.958;-7.470;2024-01-30T12:55:35;101906.53;;;6.36;100.00
64253;BME280;50592;52.958;-7.470;2024-01-30T12:58:01;101906.66;;;6.50;100.00
64253;BME280;50592;52.958;-7.470;2024-01-30T13:00:27;101901.78;;;6.60;100.00
64253;BME280;50592;52.958;-7.470;2024-01-30T13:02:53;101898.50;;;6.73;100.00
64253;BME280;50592;52.958;-7.470;2024-01-30T13:05:18;101896.13;;;6.84;100.00
64253;BME280;50592;52.958;-7.470;2024-01-30T13:07:44;101896.66;;;6.91;100.00
64253;BME280;50592;52.958;-7.470;2024-01-30T13:10:10;101905.72;;;7.01;100.00
64253;BME280;50592;52.958;-7.470;2024-01-30T13:12:36;101906.91;;;7.12;100.00
64253;BME280;50592;52.958;-7.470;2024-01-30T13:15:04;101904.44;;;7.25;100.00
64253;BME280;50592;52.958;-7.470;2024-01-30T13:17:32;101899.75;;;7.30;100.00
64253;BME280;50592;52.958;-7.470;2024-01-30T13:19:57;101908.34;;;7.34;100.00
64253;BME280;50592;52.958;-7.470;2024-01-30T13:22:23;101898.25;;;7.42;100.00
64253;BME280;50592;52.958;-7.470;2024-01-30T13:24:50;101898.53;;;7.52;100.00
64253;BME280;50592;52.958;-7.470;2024-01-30T13:27:16;101901.16;;;7.52;100.00
64253;BME280;50592;52.958;-7.470;2024-01-30T13:29:42;101906.44;;;7.52;100.00
64253;BME280;50592;52.958;-7.470;2024-01-30T13:32:07;101898.97;;;7.44;100.00
64253;BME280;50592;52.958;-7.470;2024-01-30T13:34:33;101893.16;;;7.39;100.00
64253;BME280;50592;52.958;-7.470;2024-01-30T13:36:59;101892.38;;;7.37;100.00
64253;BME280;50592;52.958;-7.470;2024-01-30T13:39:25;101909.19;;;7.34;100.00
64253;BME280;50592;52.958;-7.470;2024-01-30T13:41:51;101899.94;;;7.27;100.00
64253;BME280;50592;52.958;-7.470;2024-01-30T13:44:17;101899.09;;;7.26;100.00
64253;BME280;50592;52.958;-7.470;2024-01-30T13:46:43;101901.31;;;7.18;100.00
64253;BME280;50592;52.958;-7.470;2024-01-30T13:49:09;101905.38;;;7.07;100.00
64253;BME280;50592;52.958;-7.470;2024-01-30T13:51:35;101909.97;;;7.04;100.00
64253;BME280;50592;52.958;-7.470;2024-01-30T13:54:00;101916.31;;;7.00;100.00
64253;BME280;50592;52.958;-7.470;2024-01-30T13:56:26;101906.06;;;6.95;100.00
64253;BME280;50592;52.958;-7.470;2024-01-30T13:58:52;101908.84;;;6.92;100.00
64253;BME280;50592;52.958;-7.470;2024-01-30T14:01:18;101910.38;;;6.96;100.00
64253;BME280;50592;52.958;-7.470;2024-01-30T14:03:44;101899.59;;;7.01;100.00
64253;BME280;50592;52.958;-7.470;2024-01-30T14:06:11;101909.72;;;7.09;100.00
64253;BME280;50592;52.958;-7.470;2024-01-30T14:08:37;101896.88;;;7.18;100.00
64253;BME280;50592;52.958;-7.470;2024-01-30T14:11:05;101901.06;;;7.23;100.00
64253;BME280;50592;52.958;-7.470;2024-01-30T14:13:32;101900.78;;;7.27;100.00
64253;BME280;50592;52.958;-7.470;2024-01-30T14:15:58;101898.91;;;7.29;100.00
64253;BME280;50592;52.958;-7.470;2024-01-30T14:18:24;101897.03;;;7.31;100.00
64253;BME280;50592;52.958;-7.470;2024-01-30T14:20:51;101904.94;;;7.31;100.00
64253;BME280;50592;52.958;-7.470;2024-01-30T14:23:17;101898.84;;;7.31;100.00
64253;BME280;50592;52.958;-7.470;2024-01-30T14:25:43;101897.22;;;7.28;100.00
64253;BME280;50592;52.958;-7.470;2024-01-30T14:28:10;101902.56;;;7.27;100.00
64253;BME280;50592;52.958;-7.470;2024-01-30T14:30:35;101906.78;;;7.29;100.00